sensor_id;sensor_type;location;lat;lon;timestamp;pressure;altitude;pressure_sealevel;temperature
10058;BMP180;5068;51.286;7.518;2024-03-23T00:54:17;98638.00;;;12.00
10058;BMP180;5068;51.286;7.518;2024-03-23T00:55:48;98636.00;;;12.00
10058;BMP180;5068;51.286;7.518;2024-03-23T00:57:19;98625.00;;;12.00
10058;BMP180;5068;51.286;7.518;2024-03-23T00:58:50;98629.00;;;12.00
10058;BMP180;5068;51.286;7.518;2024-03-23T01:00:21;98631.00;;;11.90
10058;BMP180;5068;51.286;7.518;2024-03-23T01:01:53;98626.00;;;11.90
10058;BMP180;5068;51.286;7.518;2024-03-23T01:03:24;98625.00;;;11.90
10058;BMP180;5068;51.286;7.518;2024-03-23T01:04:55;98621.00;;;11.90
10058;BMP180;5068;51.286;7.518;2024-03-23T01:06:26;98609.00;;;11.90
10058;BMP180;5068;51.286;7.518;2024-03-23T01:07:57;98606.00;;;11.80
10058;BMP180;5068;51.286;7.518;2024-03-23T01:09:28;98608.00;;;11.80
10058;BMP180;5068;51.286;7.518;2024-03-23T01:11:01;98609.00;;;11.80
10058;BMP180;5068;51.286;7.518;2024-03-23T01:12:33;98604.00;;;11.80
10058;BMP180;5068;51.286;7.518;2024-03-23T01:14:04;98603.00;;;11.70
10058;BMP180;5068;51.286;7.518;2024-03-23T01:15:35;98619.00;;;11.70
10058;BMP180;5068;51.286;7.518;2024-03-23T01:17:06;98626.00;;;11.70
10058;BMP180;5068;51.286;7.518;2024-03-23T01:18:37;98632.00;;;11.70
10058;BMP180;5068;51.286;7.518;2024-03-23T01:20:09;98633.00;;;11.60
10058;BMP180;5068;51.286;7.518;2024-03-23T01:21:40;98628.00;;;11.60
10058;BMP180;5068;51.286;7.518;2024-03-23T01:23:12;98624.00;;;11.60
10058;BMP180;5068;51.286;7.518;2024-03-23T01:24:43;98610.00;;;11.50
10058;BMP180;5068;51.286;7.518;2024-03-23T01:26:14;98609.00;;;11.50
10058;BMP180;5068;51.286;7.518;2024-03-23T01:27:45;98604.00;;;11.50
10058;BMP180;5068;51.286;7.518;2024-03-23T01:29:16;98604.00;;;11.50
10058;BMP180;5068;51.286;7.518;2024-03-23T01:30:48;98607.00;;;11.50
10058;BMP180;5068;51.286;7.518;2024-03-23T01:32:19;98605.00;;;11.50
10058;BMP180;5068;51.286;7.518;2024-03-23T01:33:50;98607.00;;;11.50
10058;BMP180;5068;51.286;7.518;2024-03-23T01:35:21;98606.00;;;11.50
10058;BMP180;5068;51.286;7.518;2024-03-23T01:36:52;98611.00;;;11.50
10058;BMP180;5068;51.286;7.518;2024-03-23T01:38:23;98610.00;;;11.50
10058;BMP180;5068;51.286;7.518;2024-03-23T01:39:54;98608.00;;;11.50
10058;BMP180;5068;51.286;7.518;2024-03-23T01:41:25;98600.00;;;11.50
10058;BMP180;5068;51.286;7.518;2024-03-23T01:43:04;98610.00;;;11.50
10058;BMP180;5068;51.286;7.518;2024-03-23T01:44:36;98601.00;;;11.50
10058;BMP180;5068;51.286;7.518;2024-03-23T01:46:07;98597.00;;;11.50
10058;BMP180;5068;51.286;7.518;2024-03-23T01:47:38;98604.00;;;11.40
10058;BMP180;5068;51.286;7.518;2024-03-23T01:49:11;98599.00;;;11.40
10058;BMP180;5068;51.286;7.518;2024-03-23T01:50:42;98601.00;;;11.40
10058;BMP180;5068;51.286;7.518;2024-03-23T01:52:14;98605.00;;;11.40
10058;BMP180;5068;51.286;7.518;2024-03-23T01:53:45;98589.00;;;11.40
10058;BMP180;5068;51.286;7.518;2024-03-23T01:55:17;98597.00;;;11.40
10058;BMP180;5068;51.286;7.518;2024-03-23T01:56:49;98584.00;;;11.40
10058;BMP180;5068;51.286;7.518;2024-03-23T01:58:20;98590.00;;;11.40
10058;BMP180;5068;51.286;7.518;2024-03-23T01:59:51;98596.00;;;11.40
10058;BMP180;5068;51.286;7.518;2024-03-23T02:01:30;98592.00;;;11.40
10058;BMP180;5068;51.286;7.518;2024-03-23T02:03:01;98604.00;;;11.40
10058;BMP180;5068;51.286;7.518;2024-03-23T02:04:32;98598.00;;;11.40
10058;BMP180;5068;51.286;7.518;2024-03-23T02:06:03;98606.00;;;11.40
10058;BMP180;5068;51.286;7.518;2024-03-23T02:07:35;98592.00;;;11.40
10058;BMP180;5068;51.286;7.518;2024-03-23T02:09:07;98591.00;;;11.30
10058;BMP180;5068;51.286;7.518;2024-03-23T02:10:38;98599.00;;;11.30
10058;BMP180;5068;51.286;7.518;2024-03-23T02:12:10;98610.00;;;11.30
10058;BMP180;5068;51.286;7.518;2024-03-23T02:13:41;98604.00;;;11.20
10058;BMP180;5068;51.286;7.518;2024-03-23T02:15:12;98602.00;;;11.20
10058;BMP180;5068;51.286;7.518;2024-03-23T02:16:43;98595.00;;;11.20
10058;BMP180;5068;51.286;7.518;2024-03-23T02:18:14;98583.00;;;11.10
10058;BMP180;5068;51.286;7.518;2024-03-23T02:19:46;98588.00;;;11.10
10058;BMP180;5068;51.286;7.518;2024-03-23T02:21:17;98584.00;;;11.10
10058;BMP180;5068;51.286;7.518;2024-03-23T02:22:55;98583.00;;;11.10
10058;BMP180;5068;51.286;7.518;2024-03-23T02:24:26;98581.00;;;11.10
10058;BMP180;5068;51.286;7.518;2024-03-23T02:25:57;98590.00;;;11.10
10058;BMP180;5068;51.286;7.518;2024-03-23T02:27:28;98582.00;;;11.10
10058;BMP180;5068;51.286;7.518;2024-03-23T02:28:59;98590.00;;;11.10
10058;BMP180;5068;51.286;7.518;2024-03-23T02:30:30;98589.00;;;11.10
10058;BMP180;5068;51.286;7.518;2024-03-23T02:32:01;98589.00;;;11.10
10058;BMP180;5068;51.286;7.518;2024-03-23T02:33:32;98582.00;;;11.10
10058;BMP180;5068;51.286;7.518;2024-03-23T02:35:05;98581.00;;;11.10
10058;BMP180;5068;51.286;7.518;2024-03-23T02:36:36;98577.00;;;11.00
10058;BMP180;5068;51.286;7.518;2024-03-23T02:38:07;98573.00;;;11.00
10058;BMP180;5068;51.286;7.518;2024-03-23T02:39:38;98576.00;;;11.10
10058;BMP180;5068;51.286;7.518;2024-03-23T02:41:10;98587.00;;;11.10
10058;BMP180;5068;51.286;7.518;2024-03-23T02:42:41;98578.00;;;11.10
10058;BMP180;5068;51.286;7.518;2024-03-23T02:44:12;98572.00;;;11.00
10058;BMP180;5068;51.286;7.518;2024-03-23T02:45:44;98582.00;;;11.00
10058;BMP180;5068;51.286;7.518;2024-03-23T02:47:15;98579.00;;;11.00
10058;BMP180;5068;51.286;7.518;2024-03-23T02:48:49;98577.00;;;11.00
10058;BMP180;5068;51.286;7.518;2024-03-23T02:50:20;98574.00;;;11.00
10058;BMP180;5068;51.286;7.518;2024-03-23T02:51:51;98578.00;;;11.00
10058;BMP180;5068;51.286;7.518;2024-03-23T02:53:22;98583.00;;;11.00
10058;BMP180;5068;51.286;7.518;2024-03-23T02:54:53;98574.00;;;11.00
10058;BMP180;5068;51.286;7.518;2024-03-23T02:56:24;98586.00;;;10.90
10058;BMP180;5068;51.286;7.518;2024-03-23T02:57:56;98588.00;;;10.90
10058;BMP180;5068;51.286;7.518;2024-03-23T02:59:32;98601.00;;;10.90
10058;BMP180;5068;51.286;7.518;2024-03-23T03:01:03;98593.00;;;10.90
10058;BMP180;5068;51.286;7.518;2024-03-23T03:02:35;98589.00;;;10.90
10058;BMP180;5068;51.286;7.518;2024-03-23T03:04:06;98588.00;;;10.90
10058;BMP180;5068;51.286;7.518;2024-03-23T03:05:37;98591.00;;;10.90
10058;BMP180;5068;51.286;7.518;2024-03-23T03:07:08;98587.00;;;10.90
10058;BMP180;5068;51.286;7.518;2024-03-23T03:08:39;98596.00;;;10.90
10058;BMP180;5068;51.286;7.518;2024-03-23T03:10:10;98588.00;;;10.80
10058;BMP180;5068;51.286;7.518;2024-03-23T03:11:42;98592.00;;;10.80
10058;BMP180;5068;51.286;7.518;2024-03-23T03:13:13;98595.00;;;10.80
10058;BMP180;5068;51.286;7.518;2024-03-23T03:14:44;98599.00;;;10.80
10058;BMP180;5068;51.286;7.518;2024-03-23T03:16:15;98591.00;;;10.80
10058;BMP180;5068;51.286;7.518;2024-03-23T03:17:46;98592.00;;;10.80
10058;BMP180;5068;51.286;7.518;2024-03-23T03:19:17;98608.00;;;10.80
10058;BMP180;5068;51.286;7.518;2024-03-23T03:20:48;98605.00;;;10.80
10058;BMP180;5068;51.286;7.518;2024-03-23T03:22:20;98602.00;;;10.70
10058;BMP180;5068;51.286;7.518;2024-03-23T03:23:51;98604.00;;;10.70
10058;BMP180;5068;51.286;7.518;2024-03-23T03:25:22;98599.00;;;10.70
10058;BMP180;5068;51.286;7.518;2024-03-23T03:26:54;98589.00;;;10.70
10058;BMP180;5068;51.286;7.518;2024-03-23T03:28:25;98592.00;;;10.60
10058;BMP180;5068;51.286;7.518;2024-03-23T03:29:57;98590.00;;;10.60
10058;BMP180;5068;51.286;7.518;2024-03-23T03:31:28;98595.00;;;10.60
10058;BMP180;5068;51.286;7.518;2024-03-23T03:32:59;98599.00;;;10.50
10058;BMP180;5068;51.286;7.518;2024-03-23T03:34:30;98603.00;;;10.50
10058;BMP180;5068;51.286;7.518;2024-03-23T03:36:02;98612.00;;;10.50
10058;BMP180;5068;51.286;7.518;2024-03-23T03:37:33;98596.00;;;10.50
10058;BMP180;5068;51.286;7.518;2024-03-23T03:39:04;98594.00;;;10.50
10058;BMP180;5068;51.286;7.518;2024-03-23T03:40:35;98583.00;;;10.50
10058;BMP180;5068;51.286;7.518;2024-03-23T03:42:06;98580.00;;;10.50
10058;BMP180;5068;51.286;7.518;2024-03-23T03:43:38;98569.00;;;10.50
10058;BMP180;5068;51.286;7.518;2024-03-23T03:45:09;98575.00;;;10.50
10058;BMP180;5068;51.286;7.518;2024-03-23T03:46:40;98564.00;;;10.50
10058;BMP180;5068;51.286;7.518;2024-03-23T03:48:11;98566.00;;;10.40
10058;BMP180;5068;51.286;7.518;2024-03-23T03:49:42;98555.00;;;10.40
10058;BMP180;5068;51.286;7.518;2024-03-23T03:51:14;98566.00;;;10.40
10058;BMP180;5068;51.286;7.518;2024-03-23T03:52:45;98568.00;;;10.30
10058;BMP180;5068;51.286;7.518;2024-03-23T03:54:16;98570.00;;;10.30
10058;BMP180;5068;51.286;7.518;2024-03-23T03:55:47;98576.00;;;10.20
10058;BMP180;5068;51.286;7.518;2024-03-23T03:57:18;98582.00;;;10.20
10058;BMP180;5068;51.286;7.518;2024-03-23T03:58:49;98580.00;;;10.10
10058;BMP180;5068;51.286;7.518;2024-03-23T04:00:21;98568.00;;;10.10
10058;BMP180;5068;51.286;7.518;2024-03-23T04:01:52;98568.00;;;10.00
10058;BMP180;5068;51.286;7.518;2024-03-23T04:03:23;98570.00;;;10.00
10058;BMP180;5068;51.286;7.518;2024-03-23T04:04:54;98579.00;;;10.00
10058;BMP180;5068;51.286;7.518;2024-03-23T04:06:25;98582.00;;;10.00
10058;BMP180;5068;51.286;7.518;2024-03-23T04:07:56;98569.00;;;9.90
10058;BMP180;5068;51.286;7.518;2024-03-23T04:09:27;98573.00;;;9.90
10058;BMP180;5068;51.286;7.518;2024-03-23T04:10:58;98575.00;;;9.90
10058;BMP180;5068;51.286;7.518;2024-03-23T04:12:29;98575.00;;;9.90
10058;BMP180;5068;51.286;7.518;2024-03-23T04:14:00;98577.00;;;9.90
10058;BMP180;5068;51.286;7.518;2024-03-23T04:15:32;98574.00;;;9.90
10058;BMP180;5068;51.286;7.518;2024-03-23T04:17:04;98572.00;;;9.90
10058;BMP180;5068;51.286;7.518;2024-03-23T04:18:35;98560.00;;;9.90
10058;BMP180;5068;51.286;7.518;2024-03-23T04:20:07;98564.00;;;9.90
10058;BMP180;5068;51.286;7.518;2024-03-23T04:21:41;98570.00;;;9.90
10058;BMP180;5068;51.286;7.518;2024-03-23T04:23:12;98588.00;;;9.90
10058;BMP180;5068;51.286;7.518;2024-03-23T04:24:43;98586.00;;;9.90
10058;BMP180;5068;51.286;7.518;2024-03-23T04:26:15;98574.00;;;9.90
10058;BMP180;5068;51.286;7.518;2024-03-23T04:27:46;98576.00;;;9.90
10058;BMP180;5068;51.286;7.518;2024-03-23T04:29:17;98576.00;;;9.90
10058;BMP180;5068;51.286;7.518;2024-03-23T04:30:48;98577.00;;;9.80
10058;BMP180;5068;51.286;7.518;2024-03-23T04:32:20;98592.00;;;9.80
10058;BMP180;5068;51.286;7.518;2024-03-23T04:33:51;98583.00;;;9.80
10058;BMP180;5068;51.286;7.518;2024-03-23T04:35:22;98575.00;;;9.80
10058;BMP180;5068;51.286;7.518;2024-03-23T04:36:56;98573.00;;;9.80
10058;BMP180;5068;51.286;7.518;2024-03-23T04:38:27;98578.00;;;9.80
10058;BMP180;5068;51.286;7.518;2024-03-23T04:39:58;98581.00;;;9.80
10058;BMP180;5068;51.286;7.518;2024-03-23T04:41:30;98568.00;;;9.80
10058;BMP180;5068;51.286;7.518;2024-03-23T04:43:01;98562.00;;;9.80
10058;BMP180;5068;51.286;7.518;2024-03-23T04:44:32;98565.00;;;9.80
10058;BMP180;5068;51.286;7.518;2024-03-23T04:46:03;98570.00;;;9.80
10058;BMP180;5068;51.286;7.518;2024-03-23T04:47:34;98569.00;;;9.80
10058;BMP180;5068;51.286;7.518;2024-03-23T04:49:07;98570.00;;;9.80
10058;BMP180;5068;51.286;7.518;2024-03-23T04:50:38;98578.00;;;9.80
10058;BMP180;5068;51.286;7.518;2024-03-23T04:52:09;98574.00;;;9.70
10058;BMP180;5068;51.286;7.518;2024-03-23T04:53:40;98563.00;;;9.70
10058;BMP180;5068;51.286;7.518;2024-03-23T04:55:12;98570.00;;;9.70
10058;BMP180;5068;51.286;7.518;2024-03-23T04:56:45;98576.00;;;9.70
10058;BMP180;5068;51.286;7.518;2024-03-23T04:58:16;98572.00;;;9.70
10058;BMP180;5068;51.286;7.518;2024-03-23T04:59:48;98577.00;;;9.70
10058;BMP180;5068;51.286;7.518;2024-03-23T05:01:19;98577.00;;;9.70
10058;BMP180;5068;51.286;7.518;2024-03-23T05:02:50;98581.00;;;9.70
10058;BMP180;5068;51.286;7.518;2024-03-23T05:04:21;98590.00;;;9.70
10058;BMP180;5068;51.286;7.518;2024-03-23T05:05:52;98589.00;;;9.70
10058;BMP180;5068;51.286;7.518;2024-03-23T05:07:23;98582.00;;;9.70
10058;BMP180;5068;51.286;7.518;2024-03-23T05:08:55;98585.00;;;9.70
10058;BMP180;5068;51.286;7.518;2024-03-23T05:10:26;98583.00;;;9.60
10058;BMP180;5068;51.286;7.518;2024-03-23T05:11:57;98585.00;;;9.60
10058;BMP180;5068;51.286;7.518;2024-03-23T05:13:28;98575.00;;;9.60
10058;BMP180;5068;51.286;7.518;2024-03-23T05:14:59;98577.00;;;9.60
10058;BMP180;5068;51.286;7.518;2024-03-23T05:16:30;98564.00;;;9.50
10058;BMP180;5068;51.286;7.518;2024-03-23T05:18:01;98572.00;;;9.50
10058;BMP180;5068;51.286;7.518;2024-03-23T05:19:32;98580.00;;;9.50
10058;BMP180;5068;51.286;7.518;2024-03-23T05:21:03;98574.00;;;9.50
10058;BMP180;5068;51.286;7.518;2024-03-23T05:22:36;98574.00;;;9.50
10058;BMP180;5068;51.286;7.518;2024-03-23T05:24:07;98580.00;;;9.50
10058;BMP180;5068;51.286;7.518;2024-03-23T05:25:38;98576.00;;;9.50
10058;BMP180;5068;51.286;7.518;2024-03-23T05:27:09;98573.00;;;9.50
10058;BMP180;5068;51.286;7.518;2024-03-23T05:28:40;98579.00;;;9.40
10058;BMP180;5068;51.286;7.518;2024-03-23T05:30:11;98573.00;;;9.40
10058;BMP180;5068;51.286;7.518;2024-03-23T05:31:43;98578.00;;;9.40
10058;BMP180;5068;51.286;7.518;2024-03-23T05:33:14;98578.00;;;9.40
10058;BMP180;5068;51.286;7.518;2024-03-23T05:34:45;98580.00;;;9.40
10058;BMP180;5068;51.286;7.518;2024-03-23T05:36:17;98575.00;;;9.40
10058;BMP180;5068;51.286;7.518;2024-03-23T05:37:48;98571.00;;;9.40
10058;BMP180;5068;51.286;7.518;2024-03-23T05:39:19;98564.00;;;9.30
10058;BMP180;5068;51.286;7.518;2024-03-23T05:40:54;98571.00;;;9.30
10058;BMP180;5068;51.286;7.518;2024-03-23T05:42:25;98578.00;;;9.30
10058;BMP180;5068;51.286;7.518;2024-03-23T05:43:57;98576.00;;;9.30
10058;BMP180;5068;51.286;7.518;2024-03-23T05:45:28;98580.00;;;9.20
10058;BMP180;5068;51.286;7.518;2024-03-23T05:46:59;98577.00;;;9.20
10058;BMP180;5068;51.286;7.518;2024-03-23T05:48:31;98575.00;;;9.20
10058;BMP180;5068;51.286;7.518;2024-03-23T05:50:02;98573.00;;;9.20
10058;BMP180;5068;51.286;7.518;2024-03-23T05:51:34;98571.00;;;9.20
10058;BMP180;5068;51.286;7.518;2024-03-23T05:53:05;98579.00;;;9.20
10058;BMP180;5068;51.286;7.518;2024-03-23T05:54:37;98577.00;;;9.20
10058;BMP180;5068;51.286;7.518;2024-03-23T05:56:08;98560.00;;;9.20
10058;BMP180;5068;51.286;7.518;2024-03-23T05:57:39;98570.00;;;9.20
10058;BMP180;5068;51.286;7.518;2024-03-23T05:59:11;98569.00;;;9.20
10058;BMP180;5068;51.286;7.518;2024-03-23T06:00:43;98571.00;;;9.20
10058;BMP180;5068;51.286;7.518;2024-03-23T06:02:14;98574.00;;;9.20
10058;BMP180;5068;51.286;7.518;2024-03-23T06:03:45;98576.00;;;9.20
10058;BMP180;5068;51.286;7.518;2024-03-23T06:05:17;98569.00;;;9.20
10058;BMP180;5068;51.286;7.518;2024-03-23T06:06:48;98569.00;;;9.20
10058;BMP180;5068;51.286;7.518;2024-03-23T06:08:19;98575.00;;;9.10
10058;BMP180;5068;51.286;7.518;2024-03-23T06:09:50;98578.00;;;9.10
10058;BMP180;5068;51.286;7.518;2024-03-23T06:11:21;98576.00;;;9.10
10058;BMP180;5068;51.286;7.518;2024-03-23T06:12:53;98583.00;;;9.10
10058;BMP180;5068;51.286;7.518;2024-03-23T06:14:24;98587.00;;;9.10
10058;BMP180;5068;51.286;7.518;2024-03-23T06:15:55;98591.00;;;9.10
10058;BMP180;5068;51.286;7.518;2024-03-23T06:17:26;98592.00;;;9.20
10058;BMP180;5068;51.286;7.518;2024-03-23T06:18:57;98601.00;;;9.20
10058;BMP180;5068;51.286;7.518;2024-03-23T06:20:29;98602.00;;;9.20
10058;BMP180;5068;51.286;7.518;2024-03-23T06:22:00;98597.00;;;9.20
10058;BMP180;5068;51.286;7.518;2024-03-23T06:23:31;98591.00;;;9.20
10058;BMP180;5068;51.286;7.518;2024-03-23T06:25:03;98598.00;;;9.20
10058;BMP180;5068;51.286;7.518;2024-03-23T06:26:34;98601.00;;;9.20
10058;BMP180;5068;51.286;7.518;2024-03-23T06:28:05;98593.00;;;9.20
10058;BMP180;5068;51.286;7.518;2024-03-23T06:29:36;98588.00;;;9.10
10058;BMP180;5068;51.286;7.518;2024-03-23T06:31:11;98586.00;;;9.10
10058;BMP180;5068;51.286;7.518;2024-03-23T06:32:42;98596.00;;;9.10
10058;BMP180;5068;51.286;7.518;2024-03-23T06:34:13;98596.00;;;9.00
10058;BMP180;5068;51.286;7.518;2024-03-23T06:35:51;98592.00;;;9.00
10058;BMP180;5068;51.286;7.518;2024-03-23T06:37:23;98588.00;;;9.00
10058;BMP180;5068;51.286;7.518;2024-03-23T06:38:54;98595.00;;;8.90
10058;BMP180;5068;51.286;7.518;2024-03-23T06:40:25;98592.00;;;8.90
10058;BMP180;5068;51.286;7.518;2024-03-23T06:41:56;98603.00;;;8.90
10058;BMP180;5068;51.286;7.518;2024-03-23T06:43:27;98610.00;;;8.90
10058;BMP180;5068;51.286;7.518;2024-03-23T06:44:58;98601.00;;;8.80
10058;BMP180;5068;51.286;7.518;2024-03-23T06:46:29;98602.00;;;8.80
10058;BMP180;5068;51.286;7.518;2024-03-23T06:48:00;98606.00;;;8.80
10058;BMP180;5068;51.286;7.518;2024-03-23T06:49:31;98600.00;;;8.80
10058;BMP180;5068;51.286;7.518;2024-03-23T06:51:03;98600.00;;;8.80
10058;BMP180;5068;51.286;7.518;2024-03-23T06:52:34;98606.00;;;8.80
10058;BMP180;5068;51.286;7.518;2024-03-23T06:54:05;98617.00;;;8.80
10058;BMP180;5068;51.286;7.518;2024-03-23T06:55:36;98611.00;;;8.70
10058;BMP180;5068;51.286;7.518;2024-03-23T06:57:07;98601.00;;;8.70
10058;BMP180;5068;51.286;7.518;2024-03-23T06:58:38;98614.00;;;8.70
10058;BMP180;5068;51.286;7.518;2024-03-23T07:00:11;98609.00;;;8.70
10058;BMP180;5068;51.286;7.518;2024-03-23T07:01:42;98614.00;;;8.70
10058;BMP180;5068;51.286;7.518;2024-03-23T07:03:13;98609.00;;;8.70
10058;BMP180;5068;51.286;7.518;2024-03-23T07:04:44;98613.00;;;8.70
10058;BMP180;5068;51.286;7.518;2024-03-23T07:06:16;98622.00;;;8.80
10058;BMP180;5068;51.286;7.518;2024-03-23T07:07:47;98618.00;;;8.80
10058;BMP180;5068;51.286;7.518;2024-03-23T07:09:18;98623.00;;;8.80
10058;BMP180;5068;51.286;7.518;2024-03-23T07:10:50;98620.00;;;8.80
10058;BMP180;5068;51.286;7.518;2024-03-23T07:12:21;98625.00;;;8.80
10058;BMP180;5068;51.286;7.518;2024-03-23T07:13:53;98619.00;;;8.80
10058;BMP180;5068;51.286;7.518;2024-03-23T07:15:27;98616.00;;;8.80
10058;BMP180;5068;51.286;7.518;2024-03-23T07:16:58;98618.00;;;8.80
10058;BMP180;5068;51.286;7.518;2024-03-23T07:18:29;98625.00;;;8.80
10058;BMP180;5068;51.286;7.518;2024-03-23T07:20:03;98620.00;;;8.80
10058;BMP180;5068;51.286;7.518;2024-03-23T07:21:35;98628.00;;;8.90
10058;BMP180;5068;51.286;7.518;2024-03-23T07:23:06;98625.00;;;8.90
10058;BMP180;5068;51.286;7.518;2024-03-23T07:24:38;98619.00;;;8.90
10058;BMP180;5068;51.286;7.518;2024-03-23T07:26:12;98612.00;;;8.90
10058;BMP180;5068;51.286;7.518;2024-03-23T07:27:43;98606.00;;;8.90
10058;BMP180;5068;51.286;7.518;2024-03-23T07:29:15;98616.00;;;8.90
10058;BMP180;5068;51.286;7.518;2024-03-23T07:30:46;98608.00;;;8.90
10058;BMP180;5068;51.286;7.518;2024-03-23T07:32:17;98616.00;;;8.90
10058;BMP180;5068;51.286;7.518;2024-03-23T07:33:49;98605.00;;;8.90
10058;BMP180;5068;51.286;7.518;2024-03-23T07:35:20;98612.00;;;8.90
10058;BMP180;5068;51.286;7.518;2024-03-23T07:36:51;98618.00;;;9.00
10058;BMP180;5068;51.286;7.518;2024-03-23T07:38:22;98619.00;;;9.00
10058;BMP180;5068;51.286;7.518;2024-03-23T07:39:53;98599.00;;;9.00
10058;BMP180;5068;51.286;7.518;2024-03-23T07:41:24;98615.00;;;9.00
10058;BMP180;5068;51.286;7.518;2024-03-23T07:42:55;98614.00;;;9.00
10058;BMP180;5068;51.286;7.518;2024-03-23T07:44:26;98616.00;;;9.00
10058;BMP180;5068;51.286;7.518;2024-03-23T07:45:58;98609.00;;;9.10
10058;BMP180;5068;51.286;7.518;2024-03-23T07:47:29;98621.00;;;9.10
10058;BMP180;5068;51.286;7.518;2024-03-23T07:49:00;98611.00;;;9.10
10058;BMP180;5068;51.286;7.518;2024-03-23T07:50:31;98608.00;;;9.20
10058;BMP180;5068;51.286;7.518;2024-03-23T07:52:02;98608.00;;;9.20
10058;BMP180;5068;51.286;7.518;2024-03-23T07:53:35;98603.00;;;9.20
10058;BMP180;5068;51.286;7.518;2024-03-23T07:55:07;98600.00;;;9.30
10058;BMP180;5068;51.286;7.518;2024-03-23T07:56:38;98611.00;;;9.30
10058;BMP180;5068;51.286;7.518;2024-03-23T07:58:09;98608.00;;;9.40
10058;BMP180;5068;51.286;7.518;2024-03-23T07:59:40;98618.00;;;9.40
10058;BMP180;5068;51.286;7.518;2024-03-23T08:01:14;98613.00;;;9.50
10058;BMP180;5068;51.286;7.518;2024-03-23T08:02:45;98616.00;;;9.60
10058;BMP180;5068;51.286;7.518;2024-03-23T08:04:16;98604.00;;;9.60
10058;BMP180;5068;51.286;7.518;2024-03-23T08:05:48;98614.00;;;9.70
10058;BMP180;5068;51.286;7.518;2024-03-23T08:07:19;98618.00;;;9.70
10058;BMP180;5068;51.286;7.518;2024-03-23T08:08:55;98613.00;;;9.80
10058;BMP180;5068;51.286;7.518;2024-03-23T08:10:32;98609.00;;;9.80
10058;BMP180;5068;51.286;7.518;2024-03-23T08:12:04;98613.00;;;9.90
10058;BMP180;5068;51.286;7.518;2024-03-23T08:13:39;98618.00;;;9.90
10058;BMP180;5068;51.286;7.518;2024-03-23T08:15:10;98615.00;;;10.00
10058;BMP180;5068;51.286;7.518;2024-03-23T08:16:41;98612.00;;;10.00
10058;BMP180;5068;51.286;7.518;2024-03-23T08:18:13;98608.00;;;10.10
10058;BMP180;5068;51.286;7.518;2024-03-23T08:19:46;98619.00;;;10.20
10058;BMP180;5068;51.286;7.518;2024-03-23T08:21:17;98624.00;;;10.20
10058;BMP180;5068;51.286;7.518;2024-03-23T08:22:49;98612.00;;;10.30
10058;BMP180;5068;51.286;7.518;2024-03-23T08:24:20;98614.00;;;10.30
10058;BMP180;5068;51.286;7.518;2024-03-23T08:26:00;98623.00;;;10.30
10058;BMP180;5068;51.286;7.518;2024-03-23T08:27:32;98619.00;;;10.40
10058;BMP180;5068;51.286;7.518;2024-03-23T08:29:04;98605.00;;;10.50
10058;BMP180;5068;51.286;7.518;2024-03-23T08:30:35;98625.00;;;10.50
10058;BMP180;5068;51.286;7.518;2024-03-23T08:32:07;98615.00;;;10.50
10058;BMP180;5068;51.286;7.518;2024-03-23T08:33:39;98618.00;;;10.50
10058;BMP180;5068;51.286;7.518;2024-03-23T08:35:10;98614.00;;;10.60
10058;BMP180;5068;51.286;7.518;2024-03-23T08:36:42;98617.00;;;10.60
10058;BMP180;5068;51.286;7.518;2024-03-23T08:38:13;98613.00;;;10.60
10058;BMP180;5068;51.286;7.518;2024-03-23T08:39:44;98615.00;;;10.70
10058;BMP180;5068;51.286;7.518;2024-03-23T08:41:15;98618.00;;;10.70
10058;BMP180;5068;51.286;7.518;2024-03-23T08:42:46;98619.00;;;10.70
10058;BMP180;5068;51.286;7.518;2024-03-23T08:44:17;98625.00;;;10.80
10058;BMP180;5068;51.286;7.518;2024-03-23T08:45:48;98615.00;;;10.80
10058;BMP180;5068;51.286;7.518;2024-03-23T08:47:20;98622.00;;;10.80
10058;BMP180;5068;51.286;7.518;2024-03-23T08:48:57;98632.00;;;10.90
10058;BMP180;5068;51.286;7.518;2024-03-23T08:50:33;98634.00;;;10.90
10058;BMP180;5068;51.286;7.518;2024-03-23T08:52:04;98621.00;;;10.90
10058;BMP180;5068;51.286;7.518;2024-03-23T08:53:37;98620.00;;;10.90
10058;BMP180;5068;51.286;7.518;2024-03-23T08:55:08;98622.00;;;10.90
10058;BMP180;5068;51.286;7.518;2024-03-23T08:56:40;98624.00;;;10.90
10058;BMP180;5068;51.286;7.518;2024-03-23T08:58:12;98626.00;;;11.00
10058;BMP180;5068;51.286;7.518;2024-03-23T08:59:44;98618.00;;;11.00
10058;BMP180;5068;51.286;7.518;2024-03-23T09:01:15;98625.00;;;11.00
10058;BMP180;5068;51.286;7.518;2024-03-23T09:02:48;98621.00;;;11.00
10058;BMP180;5068;51.286;7.518;2024-03-23T09:04:19;98621.00;;;11.00
10058;BMP180;5068;51.286;7.518;2024-03-23T09:05:52;98618.00;;;11.00
10058;BMP180;5068;51.286;7.518;2024-03-23T09:07:23;98622.00;;;11.00
10058;BMP180;5068;51.286;7.518;2024-03-23T09:08:54;98617.00;;;11.10
10058;BMP180;5068;51.286;7.518;2024-03-23T09:10:25;98610.00;;;11.10
10058;BMP180;5068;51.286;7.518;2024-03-23T09:11:56;98601.00;;;11.10
10058;BMP180;5068;51.286;7.518;2024-03-23T09:13:27;98613.00;;;11.20
10058;BMP180;5068;51.286;7.518;2024-03-23T09:14:58;98613.00;;;11.20
10058;BMP180;5068;51.286;7.518;2024-03-23T09:16:29;98607.00;;;11.30
10058;BMP180;5068;51.286;7.518;2024-03-23T09:18:00;98597.00;;;11.30
10058;BMP180;5068;51.286;7.518;2024-03-23T09:19:31;98598.00;;;11.30
10058;BMP180;5068;51.286;7.518;2024-03-23T09:21:04;98604.00;;;11.30
10058;BMP180;5068;51.286;7.518;2024-03-23T09:22:35;98591.00;;;11.40
10058;BMP180;5068;51.286;7.518;2024-03-23T09:24:06;98602.00;;;11.40
10058;BMP180;5068;51.286;7.518;2024-03-23T09:25:38;98587.00;;;11.50
10058;BMP180;5068;51.286;7.518;2024-03-23T09:27:09;98591.00;;;11.50
10058;BMP180;5068;51.286;7.518;2024-03-23T09:28:41;98602.00;;;11.60
10058;BMP180;5068;51.286;7.518;2024-03-23T09:30:13;98608.00;;;11.60
10058;BMP180;5068;51.286;7.518;2024-03-23T09:31:44;98622.00;;;11.60
10058;BMP180;5068;51.286;7.518;2024-03-23T09:33:16;98664.00;;;11.60
10058;BMP180;5068;51.286;7.518;2024-03-23T09:34:47;98676.00;;;11.70
10058;BMP180;5068;51.286;7.518;2024-03-23T09:36:18;98676.00;;;11.60
10058;BMP180;5068;51.286;7.518;2024-03-23T09:37:49;98695.00;;;11.60
10058;BMP180;5068;51.286;7.518;2024-03-23T09:39:20;98703.00;;;11.50
10058;BMP180;5068;51.286;7.518;2024-03-23T09:40:53;98713.00;;;11.40
10058;BMP180;5068;51.286;7.518;2024-03-23T09:42:24;98721.00;;;11.30
10058;BMP180;5068;51.286;7.518;2024-03-23T09:43:55;98722.00;;;11.10
10058;BMP180;5068;51.286;7.518;2024-03-23T09:45:28;98723.00;;;10.90
10058;BMP180;5068;51.286;7.518;2024-03-23T09:46:59;98722.00;;;10.80
10058;BMP180;5068;51.286;7.518;2024-03-23T09:48:31;98718.00;;;10.60
10058;BMP180;5068;51.286;7.518;2024-03-23T09:50:03;98687.00;;;10.50
10058;BMP180;5068;51.286;7.518;2024-03-23T09:51:36;98698.00;;;10.30